createdAt,value
2022-09-05T00:00:25.960Z,71.85
2022-09-05T00:06:02.550Z,72.27
2022-09-05T00:11:42.736Z,72.73
2022-09-05T00:17:07.767Z,72.87
2022-09-05T00:24:35.811Z,73.15
2022-09-05T00:28:26.836Z,73.13
2022-09-05T00:34:01.531Z,73.46
2022-09-05T00:39:22.386Z,73.50
2022-09-05T00:44:47.448Z,73.89
2022-09-05T00:50:13.084Z,74.09
2022-09-05T00:56:03.699Z,74.18
2022-09-05T01:01:47.180Z,74.29
2022-09-05T01:07:44.152Z,74.68
2022-09-05T01:13:05.647Z,75.17
2022-09-05T01:18:36.624Z,75.43
2022-09-05T01:24:28.305Z,75.79
2022-09-05T01:30:10.984Z,76.16
2022-09-05T01:35:27.208Z,76.01
2022-09-05T01:41:18.692Z,75.92
2022-09-05T01:47:09.956Z,76.18
2022-09-05T01:52:57.285Z,76.59
2022-09-05T01:58:23.232Z,76.80
2022-09-05T02:03:43.672Z,76.99
2022-09-05T02:09:34.045Z,77.06
2022-09-05T02:15:24.651Z,77.21
2022-09-05T02:20:40.183Z,77.38
2022-09-05T02:26:04.664Z,77.76
2022-09-05T02:31:31.539Z,78.19
2022-09-05T02:40:02.344Z,78.09
2022-09-05T02:45:11.903Z,78.10
2022-09-05T02:49:21.721Z,78.32
2022-09-05T02:57:41.148Z,78.33
2022-09-05T03:00:34.354Z,78.28
2022-09-05T03:06:05.558Z,78.70
2022-09-05T03:11:55.684Z,78.92
2022-09-05T03:17:37.379Z,79.22
2022-09-05T03:23:08.697Z,79.25
2022-09-05T03:28:46.436Z,79.40
2022-09-05T03:34:37.233Z,79.74
2022-09-05T03:40:16.011Z,79.74
2022-09-05T03:45:37.185Z,79.84
2022-09-05T03:56:05.604Z,79.90
2022-09-05T03:57:11.162Z,79.95
2022-09-05T04:08:06.331Z,79.98
2022-09-05T04:08:20.442Z,80.14
2022-09-05T04:13:25.105Z,79.84
2022-09-05T04:18:46.746Z,79.31
2022-09-05T04:24:26.431Z,79.52
2022-09-05T04:29:48.666Z,80.17
2022-09-05T04:35:20.285Z,80.39
2022-09-05T04:40:42.448Z,80.45
2022-09-05T04:46:00.758Z,80.50
2022-09-05T04:52:00.657Z,80.62
2022-09-05T04:57:30.774Z,80.75
2022-09-05T05:06:09.429Z,80.90
2022-09-05T05:08:50.299Z,80.64
2022-09-05T05:18:13.402Z,80.62
2022-09-05T05:20:39.723Z,80.60
2022-09-05T05:25:57.492Z,80.94
2022-09-05T05:31:14.593Z,80.72
2022-09-05T05:36:33.976Z,80.73
2022-09-05T05:41:51.986Z,80.59
2022-09-05T05:47:15.574Z,80.44
2022-09-05T05:53:05.861Z,80.02
2022-09-05T05:58:56.142Z,74.52
2022-09-05T06:04:46.809Z,65.11
2022-09-05T06:14:48.638Z,57.13
2022-09-05T06:16:27.342Z,50.47
2022-09-05T06:22:10.089Z,45.54
2022-09-05T06:28:18.115Z,40.23
2022-09-05T06:33:56.447Z,38.07
2022-09-05T06:39:12.079Z,35.35
2022-09-05T06:44:43.148Z,33.46
2022-09-05T06:50:27.414Z,32.30
2022-09-05T06:56:09.975Z,29.29
2022-09-05T07:02:00.210Z,29.11
2022-09-05T07:07:06.734Z,29.15
2022-09-05T07:12:30.052Z,28.63
2022-09-05T07:18:08.958Z,27.74
2022-09-05T07:24:06.667Z,26.84
2022-09-05T07:29:18.990Z,26.16
2022-09-05T07:34:36.644Z,26.57
2022-09-05T07:39:55.059Z,26.48
2022-09-05T07:45:36.474Z,27.57
2022-09-05T07:55:23.462Z,27.02
2022-09-05T07:56:59.651Z,27.97
2022-09-05T08:02:16.413Z,28.00
2022-09-05T08:07:48.007Z,28.22
2022-09-05T08:13:23.553Z,28.52
2022-09-05T08:19:12.169Z,29.55
2022-09-05T08:24:32.699Z,30.36
2022-09-05T08:30:25.248Z,31.93
2022-09-05T08:35:41.901Z,33.29
2022-09-05T08:41:43.152Z,33.98
2022-09-05T08:47:45.237Z,34.04
2022-09-05T08:53:45.742Z,33.60
2022-09-05T08:59:31.905Z,34.68
2022-09-05T09:05:14.657Z,35.67
2022-09-05T09:10:54.632Z,35.28
2022-09-05T09:16:13.434Z,35.72
2022-09-05T09:21:45.138Z,35.70
2022-09-05T09:27:05.965Z,36.56
2022-09-05T09:32:23.666Z,36.78
2022-09-05T09:37:59.661Z,37.35
2022-09-05T09:43:31.011Z,38.41
2022-09-05T09:49:22.743Z,38.44
2022-09-05T09:54:59.003Z,37.69
2022-09-05T10:00:23.203Z,37.08
2022-09-05T10:11:08.799Z,38.05
2022-09-05T10:12:31.816Z,38.29
2022-09-05T10:18:11.252Z,37.80
2022-09-05T10:23:34.876Z,37.98
2022-09-05T10:29:38.007Z,38.30
2022-09-05T10:35:21.366Z,38.06
2022-09-05T10:41:14.677Z,38.02
2022-09-05T10:46:50.286Z,37.61
2022-09-05T10:52:19.335Z,37.92
2022-09-05T10:57:46.967Z,37.44
2022-09-05T11:03:00.587Z,38.46
2022-09-05T11:08:27.349Z,38.08
2022-09-05T11:13:49.287Z,38.05
2022-09-05T11:19:07.214Z,38.41
2022-09-05T11:24:43.915Z,38.10
2022-09-05T11:30:09.588Z,37.59
2022-09-05T11:40:10.955Z,37.61
2022-09-05T11:42:10.701Z,36.25
2022-09-05T11:48:05.316Z,36.54
2022-09-05T11:53:40.044Z,36.88
2022-09-05T11:59:33.358Z,36.52
2022-09-05T12:05:48.523Z,35.56
2022-09-05T12:11:16.169Z,34.99
2022-09-05T12:16:44.040Z,35.94
2022-09-05T12:22:16.416Z,35.67
2022-09-05T12:27:45.737Z,35.60
2022-09-05T12:36:04.504Z,36.28
2022-09-05T12:41:33.759Z,36.02
2022-09-05T12:44:44.532Z,36.15
2022-09-05T12:50:15.323Z,36.42
2022-09-05T12:57:27.702Z,35.99
2022-09-05T13:03:08.862Z,36.17
2022-09-05T13:07:23.321Z,36.43
2022-09-05T13:14:48.321Z,35.77
2022-09-05T13:18:40.893Z,35.96
2022-09-05T13:24:05.844Z,36.24
2022-09-05T13:29:23.356Z,36.15
2022-09-05T13:38:00.576Z,36.17
2022-09-05T13:40:19.762Z,35.38
2022-09-05T13:45:58.110Z,35.78
2022-09-05T13:51:37.800Z,36.96
2022-09-05T13:57:31.745Z,37.17
2022-09-05T14:08:42.265Z,37.08
2022-09-05T14:14:11.256Z,37.21
2022-09-05T14:19:49.079Z,36.77
2022-09-05T14:25:10.921Z,37.76
2022-09-05T14:32:20.897Z,38.98
2022-09-05T14:37:53.653Z,39.90
2022-09-05T14:42:33.574Z,40.21
2022-09-05T14:47:48.480Z,40.01
2022-09-05T15:02:41.867Z,39.48
2022-09-05T15:04:37.368Z,39.51
2022-09-05T15:12:17.768Z,39.73
2022-09-05T15:15:00.038Z,39.72
2022-09-05T15:20:07.468Z,39.79
2022-09-05T15:25:19.688Z,40.01
2022-09-05T15:30:35.994Z,40.34
2022-09-05T15:35:42.698Z,40.92
2022-09-05T15:40:44.187Z,41.80
2022-09-05T15:45:46.209Z,42.30
2022-09-05T15:50:51.640Z,43.21
2022-09-05T15:55:59.805Z,43.54
2022-09-05T16:01:12.860Z,43.48
2022-09-05T16:10:50.976Z,43.61
2022-09-05T16:12:13.563Z,43.43
2022-09-05T16:23:19.593Z,43.38
2022-09-05T16:23:26.994Z,43.35
2022-09-05T16:28:30.902Z,43.88
2022-09-05T16:33:33.214Z,44.42
2022-09-05T16:38:49.454Z,44.84
2022-09-05T16:43:57.382Z,45.10
2022-09-05T16:49:16.830Z,45.67
2022-09-05T16:54:37.164Z,46.05
2022-09-05T16:59:42.588Z,46.40
2022-09-05T17:05:22.726Z,46.79
2022-09-05T17:10:28.443Z,47.30
2022-09-05T17:15:37.510Z,47.91
2022-09-05T17:20:43.154Z,48.53
2022-09-05T17:29:45.638Z,49.38
2022-09-05T17:31:53.505Z,49.87
2022-09-05T17:37:18.138Z,50.74
2022-09-05T17:42:32.778Z,51.29
2022-09-05T17:48:01.559Z,52.11
2022-09-05T17:53:24.943Z,52.74
2022-09-05T17:58:49.320Z,53.26
2022-09-05T18:03:53.524Z,53.19
2022-09-05T18:08:56.073Z,53.71
2022-09-05T18:14:01.102Z,54.10
2022-09-05T18:19:35.896Z,54.48
2022-09-05T18:24:45.202Z,54.92
2022-09-05T18:30:07.959Z,55.38
2022-09-05T18:35:37.513Z,55.51
2022-09-05T18:41:17.618Z,55.69
2022-09-05T18:46:41.199Z,55.87
2022-09-05T18:51:53.792Z,56.22
2022-09-05T18:57:26.731Z,56.48
2022-09-05T19:02:49.947Z,56.95
2022-09-05T19:07:51.015Z,57.61
2022-09-05T19:13:11.005Z,57.88
2022-09-05T19:18:26.332Z,58.11
2022-09-05T19:23:48.876Z,58.49
2022-09-05T19:37:04.520Z,58.91
2022-09-05T19:37:10.401Z,59.16
2022-09-05T19:44:29.509Z,59.59
2022-09-05T19:47:37.701Z,59.89
2022-09-05T19:50:47.443Z,59.95
2022-09-05T19:55:49.363Z,60.25
2022-09-05T20:01:02.631Z,60.67
2022-09-05T20:06:04.277Z,60.91
2022-09-05T20:11:09.928Z,61.49
2022-09-05T20:16:13.627Z,61.79
2022-09-05T20:21:28.059Z,62.03
2022-09-05T20:26:33.121Z,62.28
2022-09-05T20:31:36.060Z,62.78
2022-09-05T20:43:08.196Z,63.07
2022-09-05T20:43:21.593Z,63.34
2022-09-05T20:54:05.957Z,63.79
2022-09-05T20:54:20.747Z,63.90
2022-09-05T20:58:31.215Z,64.21
2022-09-05T21:03:40.003Z,64.44
2022-09-05T21:08:41.574Z,64.59
2022-09-05T21:13:52.561Z,64.84
2022-09-05T21:18:54.610Z,64.94
2022-09-05T21:24:21.596Z,65.15
2022-09-05T21:29:32.971Z,65.55
2022-09-05T21:34:45.073Z,65.82
2022-09-05T21:39:59.509Z,66.07
2022-09-05T21:47:40.314Z,66.31
2022-09-05T21:50:31.600Z,66.46
2022-09-05T21:59:25.804Z,66.79
2022-09-05T22:00:55.521Z,66.86
2022-09-05T22:05:56.791Z,67.13
2022-09-05T22:11:02.052Z,67.35
2022-09-05T22:16:04.195Z,67.80
2022-09-05T22:21:33.253Z,68.03
2022-09-05T22:27:10.813Z,68.26
2022-09-05T22:32:08.173Z,68.72
2022-09-05T22:37:09.297Z,68.68
2022-09-05T22:42:11.183Z,69.08
2022-09-05T22:47:12.580Z,69.27
2022-09-05T22:52:13.735Z,69.38
2022-09-05T22:57:14.890Z,69.63
2022-09-05T23:02:16.077Z,69.59
2022-09-05T23:07:20.039Z,69.79
2022-09-05T23:12:21.148Z,70.33
2022-09-05T23:17:22.401Z,70.60
2022-09-05T23:22:24.638Z,70.89
2022-09-05T23:27:26.009Z,71.16
2022-09-05T23:32:27.152Z,71.40
2022-09-05T23:37:28.436Z,71.64
2022-09-05T23:42:29.985Z,71.84
2022-09-05T23:47:31.097Z,71.96
2022-09-05T23:52:38.785Z,72.34
2022-09-05T23:57:39.977Z,72.76
